Time;durP1;ratioP1;P1;durP2;ratioP2;P2;SDS_P1;SDS_P2;PMS_P1;PMS_P2;Temp;Humidity;BMP_temperature;BMP_pressure;BME280_temperature;BME280_humidity;BME280_pressure;Samples;Min_cycle;Max_cycle;Signal;HPM_P1;HPM_P2
2021/04/16 00:00:10;;;;;;;14.38;5.78;;;;;;;4.73;61.93;102368.56;4388288;32;20090;-72
2021/04/16 00:02:35;;;;;;;10.35;5.45;;;;;;;4.75;62.04;102363.41;4398725;32;20085;-74
2021/04/16 00:05:03;;;;;;;10.85;5.40;;;;;;;4.72;61.77;102364.12;4405414;32;20042;-73
2021/04/16 00:07:28;;;;;;;10.85;5.12;;;;;;;4.64;62.50;102367.12;4402097;32;20046;-74
2021/04/16 00:09:54;;;;;;;10.73;4.93;;;;;;;4.89;61.18;102369.37;4402383;32;20108;-74
2021/04/16 00:12:20;;;;;;;14.00;6.20;;;;;;;4.73;61.29;102374.16;4401438;32;20141;-75
2021/04/16 00:14:46;;;;;;;11.93;5.70;;;;;;;4.54;61.88;102359.28;4402596;32;21196;-74
2021/04/16 00:17:12;;;;;;;8.60;4.87;;;;;;;4.60;62.03;102352.28;4402213;32;20122;-73
2021/04/16 00:19:38;;;;;;;15.55;4.68;;;;;;;4.71;61.51;102351.38;4389301;32;20103;-74
2021/04/16 00:22:04;;;;;;;11.98;4.53;;;;;;;4.73;61.02;102343.47;4402141;32;20390;-73
2021/04/16 00:24:30;;;;;;;8.93;4.20;;;;;;;4.75;60.78;102345.91;4404533;32;20178;-74
2021/04/16 00:26:56;;;;;;;11.45;4.28;;;;;;;4.73;60.71;102343.47;4402897;32;20081;-74
2021/04/16 00:29:21;;;;;;;9.77;4.30;;;;;;;4.68;60.85;102342.91;4404761;32;20427;-73
2021/04/16 00:31:50;;;;;;;10.27;4.25;;;;;;;4.68;60.71;102340.12;4402325;32;20085;-75
2021/04/16 00:34:20;;;;;;;12.60;5.35;;;;;;;4.34;61.81;102341.63;4404773;32;20043;-73
2021/04/16 00:36:46;;;;;;;13.95;4.00;;;;;;;4.30;61.93;102337.12;4403828;32;20614;-74
2021/04/16 00:39:12;;;;;;;12.10;4.30;;;;;;;4.15;62.40;102341.53;4399651;32;20046;-74
2021/04/16 00:41:38;;;;;;;13.00;4.90;;;;;;;4.12;62.54;102336.66;4405452;32;20541;-74
2021/04/16 00:44:04;;;;;;;10.75;4.87;;;;;;;4.06;62.65;102335.31;4403738;32;20073;-73
2021/04/16 00:49:20;;;;;;;10.85;4.57;;;;;;;4.44;62.10;102332.75;3982764;32;15078612;-74
2021/04/16 00:51:52;;;;;;;11.32;4.30;;;;;;;4.44;62.10;102332.75;4440777;32;20100;-72
2021/04/16 00:54:21;;;;;;;8.55;3.85;;;;;;;4.01;62.79;102333.56;4436975;32;20037;-74
2021/04/16 00:56:49;;;;;;;13.62;4.55;;;;;;;3.94;63.16;102327.00;4431941;32;20110;-72
2021/04/16 00:59:20;;;;;;;9.98;3.83;;;;;;;3.89;63.62;102321.66;4430311;32;20511;-74
2021/04/16 01:01:45;;;;;;;11.02;4.50;;;;;;;3.84;63.72;102324.72;4434555;32;20063;-73
2021/04/16 01:04:12;;;;;;;12.25;4.72;;;;;;;3.80;63.81;102321.84;4434434;32;20041;-72
2021/04/16 01:06:38;;;;;;;9.38;4.47;;;;;;;3.84;63.88;102321.94;4431478;32;20041;-73
2021/04/16 01:09:05;;;;;;;9.98;4.55;;;;;;;3.74;64.18;102323.25;4433172;32;20045;-72
2021/04/16 01:11:30;;;;;;;13.05;5.28;;;;;;;3.72;64.30;102325.56;4432099;32;20824;-73
2021/04/16 01:13:57;;;;;;;11.40;4.20;;;;;;;3.71;64.33;102325.91;4429390;32;21503;-72
2021/04/16 01:16:29;;;;;;;11.80;4.80;;;;;;;3.62;64.65;102326.06;4429103;32;20391;-73
2021/04/16 01:18:56;;;;;;;10.85;4.70;;;;;;;3.66;64.40;102318.66;4433858;32;20677;-73
2021/04/16 01:21:31;;;;;;;13.10;4.32;;;;;;;3.68;64.23;102318.28;4432783;32;20100;-72
2021/04/16 01:24:05;;;;;;;9.87;3.13;;;;;;;3.61;64.53;102312.50;4427931;32;20069;-73
2021/04/16 01:26:37;;;;;;;7.97;3.20;;;;;;;3.57;64.43;102314.37;4429200;32;20029;-73
2021/04/16 01:29:03;;;;;;;9.38;3.53;;;;;;;3.58;64.31;102314.03;4435424;32;20442;-72
2021/04/16 01:31:29;;;;;;;11.80;4.10;;;;;;;3.49;64.67;102309.75;4433290;32;20120;-72
2021/04/16 01:33:56;;;;;;;10.13;3.87;;;;;;;3.44;64.85;102299.69;4432255;32;20439;-73
2021/04/16 01:36:26;;;;;;;10.23;3.37;;;;;;;3.44;65.04;102308.03;4434029;32;20456;-72
2021/04/16 01:38:55;;;;;;;13.62;3.05;;;;;;;3.44;64.99;102305.25;4432709;32;20064;-73
2021/04/16 01:41:23;;;;;;;10.27;3.83;;;;;;;3.42;64.92;102298.44;4431709;32;20135;-71
2021/04/16 01:44:07;;;;;;;10.23;3.85;;;;;;;3.35;65.32;102312.94;4433084;32;20061;-73
2021/04/16 01:46:59;;;;;;;13.93;4.12;;;;;;;3.43;65.07;102319.53;4431530;32;20095;-72
2021/04/16 01:49:29;;;;;;;10.48;4.53;;;;;;;3.35;65.09;102309.34;4429649;32;20046;-71
2021/04/16 01:51:56;;;;;;;10.07;4.07;;;;;;;3.32;65.41;102316.41;4431017;32;20037;-73
2021/04/16 01:57:03;;;;;;;10.75;4.12;;;;;;;3.37;65.62;102321.75;3955631;32;15730568;-73
2021/04/16 01:59:35;;;;;;;10.63;4.22;;;;;;;3.36;65.59;102316.53;4437433;32;20175;-73
2021/04/16 02:02:02;;;;;;;10.43;4.55;;;;;;;3.34;65.71;102313.28;4436072;32;20029;-73
2021/04/16 02:04:28;;;;;;;10.38;3.70;;;;;;;3.29;65.91;102307.97;4431838;32;20042;-72
2021/04/16 02:06:54;;;;;;;10.32;3.78;;;;;;;3.53;65.07;102300.34;4430303;32;20482;-73
2021/04/16 02:09:24;;;;;;;8.25;3.20;;;;;;;3.55;64.80;102302.78;4430411;32;20081;-73
2021/04/16 02:11:51;;;;;;;11.07;3.95;;;;;;;3.54;64.72;102303.97;4433257;32;20060;-74
2021/04/16 02:14:20;;;;;;;10.95;3.80;;;;;;;3.51;64.69;102308.28;4432298;32;20091;-73
2021/04/16 02:16:48;;;;;;;14.38;3.72;;;;;;;3.54;64.64;102302.00;4431668;32;20064;-73
2021/04/16 02:19:14;;;;;;;7.70;2.90;;;;;;;3.25;65.70;102307.84;4432014;32;20063;-72
2021/04/16 02:21:41;;;;;;;9.88;3.37;;;;;;;3.18;66.01;102306.84;4434044;32;20069;-72
2021/04/16 02:24:08;;;;;;;8.82;3.08;;;;;;;3.17;66.50;102308.00;4432523;32;20064;-74
2021/04/16 02:26:34;;;;;;;8.27;3.10;;;;;;;3.16;66.48;102296.06;4433267;32;20072;-71
2021/04/16 02:29:01;;;;;;;9.80;3.37;;;;;;;3.13;66.41;102302.31;4437527;32;20033;-72
2021/04/16 02:31:26;;;;;;;7.97;3.53;;;;;;;3.19;66.33;102309.25;4433944;32;20854;-73
2021/04/16 02:33:52;;;;;;;12.98;4.05;;;;;;;3.11;66.57;102303.84;4430235;32;20608;-71
2021/04/16 02:36:18;;;;;;;10.30;3.50;;;;;;;3.13;66.50;102298.75;4432059;32;20041;-73
2021/04/16 02:38:44;;;;;;;9.18;3.03;;;;;;;3.07;66.94;102309.28;4433902;32;20041;-73
2021/04/16 02:41:10;;;;;;;8.73;2.92;;;;;;;3.05;66.78;102308.03;4431348;32;20155;-72
2021/04/16 02:43:36;;;;;;;12.85;4.00;;;;;;;3.08;66.75;102310.09;4429946;32;20087;-73
2021/04/16 02:46:02;;;;;;;15.48;3.92;;;;;;;3.03;67.09;102313.09;4436219;32;20104;-72
2021/04/16 02:48:28;;;;;;;7.85;3.70;;;;;;;2.95;67.71;102312.06;4432157;32;20033;-71
2021/04/16 02:50:54;;;;;;;8.40;3.95;;;;;;;3.03;67.45;102313.09;4435363;32;20080;-72
2021/04/16 02:53:20;;;;;;;11.02;4.18;;;;;;;3.02;67.55;102306.75;4430708;32;20029;-72
2021/04/16 02:55:46;;;;;;;10.07;4.07;;;;;;;2.97;67.55;102306.16;4430674;32;20089;-73
2021/04/16 02:58:11;;;;;;;11.82;4.40;;;;;;;2.93;67.95;102302.47;4430609;32;20120;-72
2021/04/16 03:00:37;;;;;;;10.90;3.90;;;;;;;3.01;67.60;102307.09;4429767;32;20040;-73
2021/04/16 03:03:04;;;;;;;9.65;3.50;;;;;;;3.00;67.77;102309.06;4431648;32;20068;-71
2021/04/16 03:05:30;;;;;;;5.80;3.10;;;;;;;2.94;68.07;102302.13;4433813;32;20399;-72
2021/04/16 03:07:56;;;;;;;8.27;3.17;;;;;;;2.90;68.17;102306.75;4423030;32;20189;-72
2021/04/16 03:10:27;;;;;;;6.82;2.87;;;;;;;2.89;68.08;102307.94;4420909;32;20120;-72
2021/04/16 03:12:52;;;;;;;11.18;3.53;;;;;;;2.93;68.06;102310.81;4423702;32;20467;-72
2021/04/16 03:15:20;;;;;;;9.55;3.15;;;;;;;2.87;68.27;102315.81;4417166;32;20075;-73
2021/04/16 03:17:46;;;;;;;8.85;3.08;;;;;;;2.86;68.14;102305.84;4421990;32;20038;-72
2021/04/16 03:20:13;;;;;;;10.07;3.30;;;;;;;3.04;67.75;102309.19;4404245;32;20281;-73
2021/04/16 03:22:39;;;;;;;11.65;4.37;;;;;;;2.98;67.47;102313.38;4427295;32;20395;-71
2021/04/16 03:25:07;;;;;;;9.63;3.83;;;;;;;2.77;68.41;102315.47;4420105;32;20061;-72
2021/04/16 03:27:33;;;;;;;9.98;3.78;;;;;;;2.89;68.08;102312.69;4419905;32;20168;-72
2021/04/16 03:29:59;;;;;;;8.27;3.70;;;;;;;2.79;68.27;102307.59;4421909;32;20165;-73
2021/04/16 03:32:25;;;;;;;7.55;3.45;;;;;;;2.73;68.61;102307.00;4425668;32;20050;-73
2021/04/16 03:34:50;;;;;;;9.20;4.05;;;;;;;2.70;68.76;102306.91;4419858;32;20038;-72
2021/04/16 03:37:16;;;;;;;13.93;3.87;;;;;;;2.65;69.23;102307.13;4422423;32;20101;-74
2021/04/16 03:39:42;;;;;;;11.40;3.75;;;;;;;2.64;69.20;102300.72;4421030;32;20033;-74
2021/04/16 03:42:08;;;;;;;8.70;3.65;;;;;;;2.62;69.38;102300.28;4423177;32;20091;-73
2021/04/16 03:44:33;;;;;;;9.43;3.92;;;;;;;2.68;69.19;102300.84;4427815;32;20041;-73
2021/04/16 03:46:59;;;;;;;13.38;4.20;;;;;;;2.67;69.25;102311.16;4423041;32;20042;-73
2021/04/16 03:49:25;;;;;;;10.95;4.07;;;;;;;2.59;69.66;102300.16;4419812;32;20131;-73
2021/04/16 03:51:54;;;;;;;6.97;3.55;;;;;;;2.57;69.94;102305.28;4417562;32;20126;-74
2021/04/16 03:54:21;;;;;;;9.50;3.22;;;;;;;2.66;69.68;102303.16;4422203;32;20111;-74
2021/04/16 03:56:47;;;;;;;7.62;3.60;;;;;;;2.59;69.57;102309.31;4419200;32;20054;-73
2021/04/16 03:59:14;;;;;;;9.80;3.37;;;;;;;2.79;68.80;102300.03;4421219;32;20615;-73
2021/04/16 04:01:40;;;;;;;6.93;3.80;;;;;;;2.83;68.64;102305.72;4422829;32;20038;-73
2021/04/16 04:04:06;;;;;;;9.65;3.62;;;;;;;2.86;68.71;102311.41;4419822;32;20386;-74
2021/04/16 04:06:32;;;;;;;9.27;4.00;;;;;;;2.86;68.70;102308.63;4421317;32;20503;-74
2021/04/16 04:08:58;;;;;;;11.35;3.90;;;;;;;2.82;69.01;102307.69;4420015;32;20458;-73
2021/04/16 04:11:24;;;;;;;13.23;5.07;;;;;;;2.89;68.84;102310.72;4423117;32;20125;-73
2021/04/16 04:13:50;;;;;;;18.30;5.03;;;;;;;2.86;68.73;102307.81;4418214;32;20122;-73
2021/04/16 04:16:16;;;;;;;13.10;4.18;;;;;;;2.60;69.85;102308.16;4424692;32;20041;-73
2021/04/16 04:18:41;;;;;;;10.45;4.20;;;;;;;2.85;69.31;102307.00;4421360;32;20364;-72
2021/04/16 04:21:07;;;;;;;12.18;3.22;;;;;;;2.61;70.09;102306.19;4419369;32;20072;-73
2021/04/16 04:23:33;;;;;;;6.05;3.12;;;;;;;2.93;68.71;102314.41;4426212;32;20077;-73
2021/04/16 04:25:59;;;;;;;12.43;3.97;;;;;;;2.95;68.59;102312.06;4418408;32;20082;-73
2021/04/16 04:28:25;;;;;;;13.35;3.60;;;;;;;2.72;69.17;102305.38;4421385;32;20038;-73
2021/04/16 04:30:51;;;;;;;11.38;3.60;;;;;;;2.84;69.05;102310.12;4418154;32;20050;-73
2021/04/16 04:33:17;;;;;;;8.52;3.25;;;;;;;2.81;68.99;102303.28;4421764;32;20041;-72
2021/04/16 04:35:42;;;;;;;9.15;3.25;;;;;;;2.80;69.02;102304.47;4420721;32;20433;-72
2021/04/16 04:38:08;;;;;;;10.65;3.70;;;;;;;2.81;68.75;102296.91;4422944;32;20034;-73
2021/04/16 04:40:35;;;;;;;12.95;3.60;;;;;;;2.75;68.97;102301.09;4418976;32;20034;-72
2021/04/16 04:43:01;;;;;;;12.60;3.47;;;;;;;2.77;69.10;102302.38;4421234;32;20038;-72
2021/04/16 04:45:26;;;;;;;14.52;3.92;;;;;;;2.38;70.42;102302.22;4420736;32;20013;-72
2021/04/16 04:47:52;;;;;;;19.80;4.68;;;;;;;2.71;69.60;102300.16;4424188;32;20104;-73
2021/04/16 04:50:19;;;;;;;9.18;3.45;;;;;;;2.76;69.35;102305.50;4418936;32;20060;-72
2021/04/16 04:52:45;;;;;;;7.65;3.67;;;;;;;2.77;69.26;102301.56;4423102;32;20375;-73
2021/04/16 04:55:14;;;;;;;14.90;4.70;;;;;;;2.70;69.57;102281.88;4423617;32;20046;-72
2021/04/16 04:57:40;;;;;;;12.75;4.93;;;;;;;2.83;68.97;102297.38;4404923;32;20034;-72
2021/04/16 05:00:10;;;;;;;13.43;4.65;;;;;;;2.81;69.18;102302.47;4421601;32;20069;-72
2021/04/16 05:02:37;;;;;;;12.60;6.57;;;;;;;2.84;69.01;102299.00;4421488;32;20061;-73
2021/04/16 05:05:04;;;;;;;21.02;10.98;;;;;;;2.80;69.48;102298.09;4421562;32;20077;-73
2021/04/16 05:07:30;;;;;;;16.65;6.10;;;;;;;2.83;69.44;102305.72;4422023;32;20061;-73
2021/04/16 05:09:56;;;;;;;11.82;4.70;;;;;;;2.79;69.64;102305.59;4416581;32;20053;-72
2021/04/16 05:12:22;;;;;;;14.57;4.55;;;;;;;2.80;69.59;102303.63;4420751;32;20088;-73
2021/04/16 05:14:48;;;;;;;14.13;3.80;;;;;;;2.83;69.32;102297.38;4421581;32;20284;-73
2021/04/16 05:17:13;;;;;;;7.62;3.65;;;;;;;2.81;69.26;102296.91;4418385;32;20041;-72
2021/04/16 05:19:39;;;;;;;26.70;4.12;;;;;;;2.81;69.33;102299.69;4419719;32;20050;-72
2021/04/16 05:22:06;;;;;;;11.68;4.78;;;;;;;2.82;69.28;102298.56;4416352;32;20221;-72
2021/04/16 05:24:33;;;;;;;17.60;4.43;;;;;;;2.90;69.35;102300.38;4418808;32;20517;-72
2021/04/16 05:27:02;;;;;;;15.35;4.82;;;;;;;2.93;69.40;102296.91;4420586;32;20064;-74
2021/04/16 05:29:28;;;;;;;14.87;4.45;;;;;;;2.96;69.12;102290.66;4416448;32;20156;-72
2021/04/16 05:31:55;;;;;;;10.55;4.45;;;;;;;2.98;69.04;102300.25;4423830;32;20501;-72
2021/04/16 05:34:20;;;;;;;16.70;3.70;;;;;;;3.08;69.00;102305.34;4417439;32;20059;-72
2021/04/16 05:36:47;;;;;;;23.52;4.20;;;;;;;3.16;68.76;102300.81;4423516;32;20054;-73
2021/04/16 05:39:14;;;;;;;10.00;4.12;;;;;;;3.18;68.29;102306.84;4423003;32;20046;-73
2021/04/16 05:41:41;;;;;;;9.73;3.83;;;;;;;3.24;68.11;102309.03;4420895;32;20096;-72
2021/04/16 05:44:07;;;;;;;16.40;4.30;;;;;;;3.26;67.97;102306.72;4421617;32;20052;-73
2021/04/16 05:46:33;;;;;;;10.88;4.03;;;;;;;3.31;67.84;102309.25;4423969;32;20363;-73
2021/04/16 05:48:59;;;;;;;13.93;4.00;;;;;;;3.33;67.63;102306.94;4418562;32;20125;-73
2021/04/16 05:51:25;;;;;;;12.52;4.30;;;;;;;3.39;67.68;102307.47;4418897;32;20061;-72
2021/04/16 05:53:51;;;;;;;16.87;4.95;;;;;;;3.38;67.54;102306.66;4422066;32;20354;-73
2021/04/16 05:56:18;;;;;;;16.87;4.35;;;;;;;3.30;68.04;102307.63;4417426;32;20402;-72
2021/04/16 05:58:44;;;;;;;16.23;5.05;;;;;;;3.44;67.73;102310.03;4421655;32;20053;-72
2021/04/16 06:01:09;;;;;;;15.52;5.15;;;;;;;3.43;67.81;102312.00;4403507;32;20091;-72
2021/04/16 06:03:38;;;;;;;24.52;5.22;;;;;;;3.48;67.60;102303.41;4420232;32;20098;-73
2021/04/16 06:06:04;;;;;;;12.98;4.37;;;;;;;3.61;67.62;102310.53;4414245;32;20041;-72
2021/04/16 06:08:30;;;;;;;21.37;4.72;;;;;;;3.60;67.56;102308.94;4423492;32;20481;-73
2021/04/16 06:10:56;;;;;;;19.30;5.35;;;;;;;3.84;66.71;102308.81;4422940;32;20462;-72
2021/04/16 06:13:23;;;;;;;21.73;4.95;;;;;;;3.93;66.62;102315.03;4419375;32;20050;-72
2021/04/16 06:15:51;;;;;;;15.30;4.47;;;;;;;4.06;66.40;102307.44;4419723;32;20033;-72
2021/04/16 06:18:18;;;;;;;17.75;4.87;;;;;;;4.00;65.61;102318.03;4420739;32;20061;-72
2021/04/16 06:20:44;;;;;;;20.92;5.15;;;;;;;4.07;66.08;102311.84;4420986;32;20108;-72
2021/04/16 06:23:10;;;;;;;19.90;6.90;;;;;;;4.15;65.95;102314.44;4418169;32;20068;-73
2021/04/16 06:25:35;;;;;;;25.12;7.78;;;;;;;4.22;65.78;102304.66;4418497;32;20099;-71
2021/04/16 06:28:02;;;;;;;29.35;8.00;;;;;;;4.29;65.76;102316.03;4424464;32;20596;-73
2021/04/16 06:30:30;;;;;;;24.55;6.85;;;;;;;4.42;65.63;102314.75;4422168;32;20064;-73
2021/04/16 06:35:41;;;;;;;11.68;5.68;;;;;;;5.05;64.59;102311.56;3992725;31;15014879;-72
2021/04/16 06:38:09;;;;;;;20.67;6.85;;;;;;;5.05;64.59;102311.56;4453135;32;20053;-74
2021/04/16 06:40:34;;;;;;;21.75;6.95;;;;;;;4.78;64.56;102306.09;4444258;32;20382;-73
2021/04/16 06:43:00;;;;;;;15.93;6.28;;;;;;;4.90;64.30;102306.81;4444246;32;20098;-74
2021/04/16 06:45:30;;;;;;;17.95;6.90;;;;;;;5.06;63.85;102309.59;4445749;32;20071;-74
2021/04/16 06:48:00;;;;;;;18.02;7.22;;;;;;;5.23;63.26;102310.00;4444645;32;20094;-73
2021/04/16 06:50:30;;;;;;;18.52;6.53;;;;;;;5.31;63.33;102311.75;4447107;32;20513;-74
2021/04/16 06:53:20;;;;;;;17.73;6.43;;;;;;;5.49;63.11;102321.34;4445652;32;20037;-74
2021/04/16 06:56:10;;;;;;;17.48;6.68;;;;;;;5.71;62.43;102319.81;4449004;32;20093;-74
2021/04/16 07:04:19;;;;;;;16.02;6.80;;;;;;;6.31;60.73;102321.00;3984689;32;15022307;-72
2021/04/16 07:06:45;;;;;;;15.95;6.70;;;;;;;6.10;61.45;102315.84;4433245;32;20062;-75
2021/04/16 07:11:52;;;;;;;14.90;6.72;;;;;;;7.13;58.88;102330.41;3953764;32;15725475;-73
2021/04/16 07:14:44;;;;;;;28.58;7.50;;;;;;;7.13;58.88;102330.41;4434314;32;20087;-74
2021/04/16 07:17:14;;;;;;;19.73;7.15;;;;;;;6.78;59.62;102322.25;4433279;32;20060;-75
2021/04/16 07:19:40;;;;;;;39.20;7.00;;;;;;;6.89;59.24;102323.25;4436497;32;20105;-73
2021/04/16 07:24:52;;;;;;;16.48;5.62;;;;;;;7.85;57.60;102320.59;3989512;31;15019619;-73
2021/04/16 07:29:57;;;;;;;22.23;6.15;;;;;;;8.18;56.68;102327.03;3981997;32;15024879;-74
2021/04/16 07:43:13;;;;;;;17.92;5.47;;;;;;;9.03;55.09;102327.84;3984106;32;15030188;-73
2021/04/16 07:45:44;;;;;;;20.92;6.25;;;;;;;9.03;55.09;102327.84;4440290;32;20069;-73
2021/04/16 07:48:33;;;;;;;17.00;6.07;;;;;;;8.79;55.71;102314.41;4440932;32;20077;-72
2021/04/16 07:51:02;;;;;;;23.08;6.03;;;;;;;8.98;55.00;102314.13;4439062;32;20034;-72
2021/04/16 07:59:14;;;;;;;9.73;4.15;;;;;;;10.16;54.42;102329.25;3957433;32;15723411;-73
2021/04/16 08:09:52;;;;;;;14.35;4.78;;;;;;;10.66;54.41;102328.16;3982189;32;15025376;-73
2021/04/16 08:12:23;;;;;;;11.75;4.25;;;;;;;10.66;54.41;102328.16;4431239;32;20441;-73
2021/04/16 08:14:49;;;;;;;14.63;4.32;;;;;;;10.24;55.08;102316.84;4430477;32;20618;-73
2021/04/16 08:17:25;;;;;;;21.62;4.68;;;;;;;10.34;54.40;102313.22;4430864;32;20069;-73
2021/04/16 08:19:51;;;;;;;12.02;3.15;;;;;;;10.52;54.21;102320.47;4433259;32;20419;-74
2021/04/16 08:25:08;;;;;;;9.50;3.40;;;;;;;10.93;52.11;102320.91;3984076;32;15035841;-76
2021/04/16 08:27:58;;;;;;;7.03;2.70;;;;;;;10.93;51.74;102323.75;4433593;32;20501;-75
2021/04/16 08:38:27;;;;;;;16.62;3.17;;;;;;;12.76;45.50;102332.31;3978861;32;15098586;-73
2021/04/16 08:40:56;;;;;;;14.38;3.22;;;;;;;12.76;45.50;102332.31;4427757;32;20073;-74
2021/04/16 08:43:34;;;;;;;4.30;2.78;;;;;;;12.30;46.61;102324.13;4431959;32;20096;-73
2021/04/16 08:46:05;;;;;;;11.10;2.58;;;;;;;12.55;46.23;102321.16;4429400;32;20029;-73
2021/04/16 08:48:37;;;;;;;13.27;3.33;;;;;;;12.94;44.77;102328.09;4430592;32;20532;-73
2021/04/16 08:51:07;;;;;;;4.90;2.10;;;;;;;13.45;43.61;102319.59;4428230;32;20152;-73
2021/04/16 08:53:34;;;;;;;10.07;2.87;;;;;;;13.95;42.14;102320.59;4435110;32;20431;-74
2021/04/16 08:56:17;;;;;;;7.75;2.75;;;;;;;13.77;41.23;102308.69;4435209;32;20110;-73
2021/04/16 08:58:44;;;;;;;15.65;3.35;;;;;;;14.04;41.00;102314.41;4428606;32;20056;-74
2021/04/16 09:01:16;;;;;;;6.85;2.85;;;;;;;14.28;40.86;102323.81;4431902;32;20087;-74
2021/04/16 09:03:47;;;;;;;7.68;2.67;;;;;;;14.88;39.89;102327.34;4428913;32;20109;-75
2021/04/16 09:06:44;;;;;;;14.75;3.12;;;;;;;15.27;38.93;102327.47;4431130;32;20059;-73
2021/04/16 09:09:12;;;;;;;4.37;2.78;;;;;;;15.53;37.91;102326.59;4427958;32;20084;-73
2021/04/16 09:17:05;;;;;;;10.90;3.12;;;;;;;15.78;37.50;102340.31;4007112;31;15015654;-75
2021/04/16 09:27:38;;;;;;;14.30;3.85;;;;;;;15.02;38.88;102340.47;3983093;32;15023506;-74
2021/04/16 09:32:48;;;;;;;18.73;4.28;;;;;;;14.97;39.06;102335.31;3996416;31;15018817;-74
2021/04/16 09:43:45;;;;;;;12.75;4.10;;;;;;;16.29;36.10;102342.44;3982810;32;15023122;-74
2021/04/16 09:49:29;;;;;;;12.50;3.85;;;;;;;16.37;35.69;102338.22;3980447;32;15024954;-73
2021/04/16 09:51:58;;;;;;;8.48;3.80;;;;;;;16.62;34.50;102338.47;4438796;32;20403;-73
2021/04/16 09:54:35;;;;;;;5.20;3.08;;;;;;;16.61;34.57;102342.56;4437576;32;20502;-74
2021/04/16 10:02:35;;;;;;;6.68;3.20;;;;;;;17.63;32.10;102343.62;3969435;32;15023385;-75
2021/04/16 10:07:57;;;;;;;9.43;2.83;;;;;;;17.22;32.34;102332.09;3940416;32;15048586;-74
2021/04/16 10:10:43;;;;;;;8.77;3.40;;;;;;;17.22;32.34;102332.09;4390304;32;20091;-75
2021/04/16 10:15:54;;;;;;;6.85;3.15;;;;;;;18.70;30.23;102327.78;3984341;32;15024563;-73
2021/04/16 10:18:35;;;;;;;6.00;3.05;;;;;;;18.70;30.23;102327.78;4437345;32;20417;-73
2021/04/16 10:21:08;;;;;;;11.55;3.60;;;;;;;18.88;29.29;102323.09;4440443;32;20033;-73
2021/04/16 10:31:02;;;;;;;13.80;4.00;;;;;;;19.93;27.67;102329.97;4439286;32;20094;-75
2021/04/16 12:38:35;;;;;;;5.90;3.47;;;;;;;25.18;19.54;102239.22;4420877;32;20057;-74
2021/04/16 12:41:05;;;;;;;13.45;4.32;;;;;;;25.37;19.35;102236.84;4422081;32;20585;-74
2021/04/16 12:43:32;;;;;;;17.58;4.10;;;;;;;25.20;19.53;102236.63;4420869;32;20129;-74
2021/04/16 12:45:59;;;;;;;10.23;3.47;;;;;;;24.70;19.99;102229.38;4421476;32;20086;-74
2021/04/16 12:48:26;;;;;;;6.55;3.45;;;;;;;23.57;21.16;102228.47;4423007;32;20038;-74
2021/04/16 12:50:52;;;;;;;8.23;3.35;;;;;;;23.15;21.68;102225.78;4422500;32;20114;-74
2021/04/16 12:53:18;;;;;;;11.85;3.87;;;;;;;22.69;21.71;102230.22;4419945;32;20218;-73
2021/04/16 12:55:44;;;;;;;8.68;3.70;;;;;;;22.05;22.57;102225.22;4419966;32;20101;-73
2021/04/16 12:58:19;;;;;;;11.48;3.80;;;;;;;22.12;22.55;102225.66;4418224;32;20046;-73
2021/04/16 13:00:45;;;;;;;7.87;3.85;;;;;;;22.42;22.50;102226.66;4421120;32;20313;-73
2021/04/16 13:03:17;;;;;;;13.88;4.03;;;;;;;22.66;21.83;102224.66;4419738;32;20146;-73
2021/04/16 13:05:46;;;;;;;8.43;4.07;;;;;;;23.17;21.72;102216.66;4422789;32;20568;-73
2021/04/16 13:08:12;;;;;;;8.98;4.90;;;;;;;23.68;21.05;102225.00;4423842;32;20022;-74
2021/04/16 13:10:37;;;;;;;13.55;3.50;;;;;;;24.02;20.54;102222.25;4410314;32;20091;-73
2021/04/16 13:13:04;;;;;;;13.00;3.50;;;;;;;24.20;19.63;102210.53;4412347;32;20038;-73
2021/04/16 13:15:30;;;;;;;15.02;3.72;;;;;;;25.40;18.71;102224.31;4409365;32;20116;-74
2021/04/16 13:18:00;;;;;;;7.00;3.67;;;;;;;26.68;17.61;102224.19;4409694;32;20649;-74
2021/04/16 13:20:27;;;;;;;8.93;3.25;;;;;;;27.42;16.96;102224.84;4412307;32;20097;-73
2021/04/16 13:22:53;;;;;;;9.50;4.07;;;;;;;28.16;16.32;102226.03;4409706;32;20432;-73
2021/04/16 13:25:24;;;;;;;7.50;3.70;;;;;;;27.99;16.70;102214.47;4410450;32;20193;-74
2021/04/16 13:27:51;;;;;;;8.25;3.80;;;;;;;27.78;16.72;102220.97;4409888;32;20156;-74
2021/04/16 13:30:21;;;;;;;9.68;4.32;;;;;;;27.11;17.16;102214.16;4410386;32;20053;-74
2021/04/16 13:32:49;;;;;;;11.85;4.40;;;;;;;26.01;18.05;102202.66;4412409;32;20043;-74
2021/04/16 13:35:23;;;;;;;10.30;4.00;;;;;;;25.04;18.99;102199.75;4410925;32;20061;-74
2021/04/16 13:37:49;;;;;;;8.07;3.63;;;;;;;24.38;20.00;102204.53;4411459;32;20067;-73
2021/04/16 13:40:15;;;;;;;12.82;3.85;;;;;;;23.11;21.06;102198.50;4407547;32;20030;-74
2021/04/16 13:42:41;;;;;;;11.95;4.32;;;;;;;22.44;21.87;102201.16;4412666;32;20573;-73
2021/04/16 13:45:07;;;;;;;9.00;3.45;;;;;;;22.12;22.38;102207.69;4406087;32;20057;-74
2021/04/16 13:47:40;;;;;;;9.77;3.70;;;;;;;21.65;22.90;102196.78;4410696;32;20575;-73
2021/04/16 13:50:07;;;;;;;14.27;3.90;;;;;;;20.90;23.66;102195.69;4410011;32;20455;-72
2021/04/16 13:52:33;;;;;;;8.15;4.07;;;;;;;20.86;23.99;102191.41;4411054;32;20037;-74
2021/04/16 13:54:58;;;;;;;9.60;3.75;;;;;;;22.83;21.79;102192.16;4409905;32;20146;-74
2021/04/16 13:57:24;;;;;;;5.87;3.45;;;;;;;25.42;19.05;102203.63;4411913;32;20050;-74
2021/04/16 13:59:50;;;;;;;7.47;3.40;;;;;;;26.74;17.30;102208.50;4412011;32;20069;-75
2021/04/16 14:02:21;;;;;;;8.77;3.15;;;;;;;28.24;16.09;102198.12;4409529;32;20451;-75
2021/04/16 14:04:48;;;;;;;11.30;3.85;;;;;;;28.36;16.16;102202.59;4411377;32;20274;-74
2021/04/16 14:07:17;;;;;;;10.80;3.30;;;;;;;29.34;15.82;102194.94;4411229;32;20069;-74
2021/04/16 14:09:42;;;;;;;12.95;3.20;;;;;;;30.78;14.43;102203.31;4410864;32;20034;-74
2021/04/16 14:12:11;;;;;;;8.95;3.42;;;;;;;30.68;14.28;102204.97;4410811;32;20060;-74
2021/04/16 14:14:37;;;;;;;12.05;3.55;;;;;;;30.50;14.27;102196.97;4412134;32;20460;-75
2021/04/16 14:17:10;;;;;;;5.82;3.35;;;;;;;31.16;13.75;102195.44;4411107;32;20125;-74
2021/04/16 14:22:24;;;;;;;4.80;3.20;;;;;;;31.52;13.68;102193.88;3981853;32;15026101;-74
2021/04/16 14:24:50;;;;;;;7.80;3.15;;;;;;;31.52;13.68;102193.88;4436422;32;20387;-74
2021/04/16 14:27:16;;;;;;;10.15;4.03;;;;;;;28.99;15.28;102175.31;4436940;32;20033;-75
2021/04/16 14:29:42;;;;;;;8.13;3.67;;;;;;;27.64;16.40;102167.81;4430056;32;20080;-74
2021/04/16 14:32:11;;;;;;;9.13;3.22;;;;;;;26.36;17.42;102162.00;4436490;32;20621;-74
2021/04/16 14:34:37;;;;;;;11.57;3.55;;;;;;;26.81;17.02;102161.78;4434575;32;20115;-74
2021/04/16 14:37:04;;;;;;;12.57;4.05;;;;;;;28.57;15.52;102152.56;4430374;32;20034;-74
2021/04/16 14:39:30;;;;;;;13.75;3.78;;;;;;;29.62;14.57;102163.66;4430786;32;20076;-73
2021/04/16 14:41:58;;;;;;;6.90;3.53;;;;;;;31.09;13.62;102167.75;4434564;32;20112;-74
2021/04/16 14:44:24;;;;;;;6.35;3.30;;;;;;;31.60;13.21;102168.66;4428925;32;20057;-74
2021/04/16 14:46:52;;;;;;;9.77;3.35;;;;;;;31.97;12.83;102160.62;4438761;32;20037;-74
2021/04/16 14:49:22;;;;;;;5.87;2.97;;;;;;;32.50;12.24;102158.63;4435299;32;20734;-75
2021/04/16 14:51:48;;;;;;;6.20;3.22;;;;;;;32.97;11.87;102164.59;4436226;32;20026;-76
2021/04/16 14:54:28;;;;;;;8.43;3.55;;;;;;;33.05;12.00;102150.88;4430989;32;20093;-76
2021/04/16 14:56:55;;;;;;;7.45;2.83;;;;;;;34.23;11.09;102163.69;4432294;32;20041;-76
2021/04/16 15:01:56;;;;;;;5.00;3.35;;;;;;;36.16;10.34;102167.38;3975792;32;15022782;-74
2021/04/16 15:04:21;;;;;;;4.22;3.28;;;;;;;36.16;10.34;102167.38;4431627;32;20115;-74
2021/04/16 15:06:53;;;;;;;4.87;2.65;;;;;;;35.93;10.51;102168.72;4431531;32;20053;-74
2021/04/16 15:09:20;;;;;;;4.60;2.60;;;;;;;36.55;10.10;102157.19;4432233;32;20095;-74
2021/04/16 15:11:49;;;;;;;5.82;2.90;;;;;;;37.48;9.59;102164.53;4432824;32;20389;-73
2021/04/16 15:16:54;;;;;;;9.70;3.53;;;;;;;34.33;11.24;102153.84;3955426;32;15042832;-75
2021/04/16 15:19:39;;;;;;;9.57;3.33;;;;;;;34.33;11.24;102153.84;4407491;32;20037;-75
2021/04/16 15:22:08;;;;;;;9.07;3.20;;;;;;;34.89;10.68;102156.03;4407816;32;20034;-75
2021/04/16 15:24:38;;;;;;;11.38;3.50;;;;;;;34.68;10.65;102140.66;4407423;32;20038;-75